Time;durP1;ratioP1;P1;durP2;ratioP2;P2;SDS_P1;SDS_P2;PMS_P1;PMS_P2;Temp;Humidity;BMP_temperature;BMP_pressure;BME280_temperature;BME280_humidity;BME280_pressure;Samples;Min_cycle;Max_cycle;Signal;HPM_P1;HPM_P2
2022/08/14 00:00:42;;;;;;;8.37;7.60;;;;;;;24.19;88.91;98706.72;5069732;28;20201;-74
2022/08/14 00:03:18;;;;;;;8.20;7.63;;;;;;;24.16;89.00;98701.78;5070337;28;20624;-74
2022/08/14 00:05:45;;;;;;;9.07;8.47;;;;;;;24.15;89.28;98707.16;5070267;28;20282;-74
2022/08/14 00:08:12;;;;;;;8.27;7.67;;;;;;;24.16;88.96;98690.50;5070037;28;20228;-75
2022/08/14 00:10:39;;;;;;;8.73;8.23;;;;;;;24.15;89.21;98694.06;5069210;28;20211;-74
2022/08/14 00:13:07;;;;;;;9.63;7.70;;;;;;;24.17;88.18;98684.28;5069904;28;20203;-74
2022/08/14 00:15:38;;;;;;;7.87;7.37;;;;;;;24.20;88.05;98681.38;5070535;28;20196;-75
2022/08/14 00:18:06;;;;;;;9.00;8.23;;;;;;;24.20;87.90;98678.75;5070604;28;20217;-74
2022/08/14 00:20:35;;;;;;;7.77;7.27;;;;;;;24.20;88.15;98671.69;5070452;28;20588;-75
2022/08/14 00:23:04;;;;;;;8.33;7.73;;;;;;;24.20;88.13;98670.88;5069205;28;20203;-75
2022/08/14 00:25:31;;;;;;;7.73;7.17;;;;;;;24.22;88.02;98674.19;5069438;28;20573;-75
2022/08/14 00:27:58;;;;;;;7.43;7.03;;;;;;;24.22;87.70;98680.25;5068517;28;20266;-74
2022/08/14 00:30:25;;;;;;;7.60;7.20;;;;;;;24.19;87.36;98675.31;5070145;28;20672;-75
2022/08/14 00:32:53;;;;;;;8.70;8.20;;;;;;;24.19;87.27;98682.31;5068823;28;20587;-74
2022/08/14 00:35:20;;;;;;;8.33;7.83;;;;;;;24.17;87.50;98676.44;5070170;28;20203;-75
2022/08/14 00:37:48;;;;;;;8.00;7.50;;;;;;;24.17;87.49;98677.22;5069764;28;20574;-74
2022/08/14 00:40:18;;;;;;;7.70;7.30;;;;;;;24.17;87.53;98665.94;5070902;28;20208;-75
2022/08/14 00:42:45;;;;;;;8.50;7.87;;;;;;;24.21;87.37;98672.50;5074019;28;20206;-75
2022/08/14 00:45:14;;;;;;;8.33;7.67;;;;;;;24.23;87.11;98670.59;5073557;28;20196;-74
2022/08/14 00:47:42;;;;;;;8.00;7.37;;;;;;;24.26;86.98;98670.28;5068998;28;20207;-74
2022/08/14 00:50:12;;;;;;;7.90;7.40;;;;;;;24.23;87.18;98665.34;5072407;28;20212;-74
2022/08/14 00:52:40;;;;;;;7.80;7.30;;;;;;;24.26;87.13;98672.91;5072796;28;20200;-75
2022/08/14 00:55:08;;;;;;;8.13;7.53;;;;;;;24.26;87.75;98662.44;5073579;28;20572;-75
2022/08/14 00:57:36;;;;;;;8.50;7.90;;;;;;;24.24;86.86;98653.88;5073777;28;20734;-75
2022/08/14 01:00:07;;;;;;;8.03;7.53;;;;;;;24.18;87.33;98651.88;5073300;28;20210;-74
2022/08/14 01:02:36;;;;;;;7.37;6.80;;;;;;;24.23;87.77;98660.13;5071549;28;20585;-75
2022/08/14 01:05:06;;;;;;;7.90;7.27;;;;;;;24.12;87.84;98642.81;5072157;28;20664;-75
2022/08/14 01:07:34;;;;;;;7.77;7.37;;;;;;;24.22;87.83;98664.53;5071680;28;20315;-75
2022/08/14 01:10:05;;;;;;;9.17;7.40;;;;;;;24.23;87.50;98665.34;5070258;28;20730;-74
2022/08/14 01:12:32;;;;;;;7.93;7.53;;;;;;;24.19;87.71;98662.22;5073474;28;20200;-74
2022/08/14 01:15:01;;;;;;;8.97;8.37;;;;;;;24.17;87.63;98661.50;5073080;28;20664;-74
2022/08/14 01:22:57;;;;;;;8.20;7.67;;;;;;;24.11;88.43;98650.78;5071927;28;20195;-74
2022/08/14 01:25:24;;;;;;;9.13;8.43;;;;;;;24.03;88.62;98644.53;5071794;28;20572;-75
2022/08/14 01:27:54;;;;;;;8.97;8.10;;;;;;;23.97;88.80;98629.38;5073585;28;20211;-75
2022/08/14 01:30:22;;;;;;;8.03;7.37;;;;;;;24.07;89.05;98649.47;5072059;28;20225;-75
2022/08/14 01:32:50;;;;;;;9.00;8.27;;;;;;;24.05;89.06;98639.94;5073055;28;20717;-75
2022/08/14 01:35:17;;;;;;;9.33;8.73;;;;;;;24.05;88.49;98641.75;5072948;28;20286;-74
2022/08/14 01:37:45;;;;;;;7.30;6.90;;;;;;;24.11;89.21;98635.06;5072008;28;20196;-74
2022/08/14 01:40:14;;;;;;;7.57;7.17;;;;;;;24.10;89.58;98634.28;5069896;28;20207;-74
2022/08/14 01:42:42;;;;;;;8.97;8.27;;;;;;;23.99;89.17;98626.63;5070802;28;20206;-74
2022/08/14 01:45:12;;;;;;;8.57;8.03;;;;;;;24.08;89.36;98645.84;5070819;28;20203;-75
2022/08/14 01:47:39;;;;;;;8.40;7.80;;;;;;;24.02;89.42;98645.47;5067671;28;20692;-74
2022/08/14 01:50:06;;;;;;;8.97;8.37;;;;;;;23.94;89.61;98640.16;5068695;28;20219;-75
2022/08/14 01:52:35;;;;;;;8.57;7.73;;;;;;;23.92;89.48;98646.50;5070837;28;20226;-74
2022/08/14 01:55:02;;;;;;;9.30;8.60;;;;;;;23.90;90.07;98649.28;5072477;28;20204;-74
2022/08/14 01:57:31;;;;;;;15.43;7.90;;;;;;;23.84;90.18;98654.28;5071349;28;20223;-74
2022/08/14 01:59:57;;;;;;;9.13;8.60;;;;;;;23.81;90.45;98644.13;5072453;28;20682;-74
2022/08/14 02:02:24;;;;;;;8.97;8.37;;;;;;;23.71;91.33;98657.28;5069449;28;20616;-74
2022/08/14 02:04:51;;;;;;;10.80;9.80;;;;;;;23.64;91.39;98653.59;5068769;28;20211;-75
2022/08/14 02:07:19;;;;;;;10.00;9.17;;;;;;;23.66;91.29;98656.88;5071513;28;20200;-75
2022/08/14 02:09:46;;;;;;;9.60;8.93;;;;;;;23.69;91.01;98656.56;5071783;28;20215;-74
2022/08/14 02:12:12;;;;;;;7.80;7.40;;;;;;;23.70;91.20;98655.63;5072122;28;20199;-74
2022/08/14 02:14:41;;;;;;;9.30;8.60;;;;;;;23.64;91.19;98637.88;5071257;28;20657;-75
2022/08/14 02:17:08;;;;;;;8.87;8.37;;;;;;;23.74;91.49;98654.38;5070990;28;20576;-75
2022/08/14 02:19:35;;;;;;;9.23;8.57;;;;;;;23.66;91.68;98641.16;5071789;28;20250;-74
2022/08/14 02:22:02;;;;;;;9.23;8.53;;;;;;;23.71;91.27;98638.13;5071552;28;20195;-74
2022/08/14 02:24:31;;;;;;;8.67;7.97;;;;;;;23.76;91.54;98638.50;5072033;28;20211;-75
2022/08/14 02:26:59;;;;;;;9.23;8.30;;;;;;;23.78;92.01;98629.50;5071700;28;20561;-75
2022/08/14 02:29:28;;;;;;;9.27;8.67;;;;;;;23.68;92.23;98623.56;5071166;28;20215;-75
2022/08/14 02:31:58;;;;;;;8.30;7.70;;;;;;;23.81;92.03;98631.03;5071432;28;20196;-74
2022/08/14 02:34:28;;;;;;;9.27;8.67;;;;;;;23.80;91.89;98640.69;5071374;28;20257;-75
2022/08/14 02:36:58;;;;;;;9.17;8.67;;;;;;;23.64;92.39;98618.75;5071537;28;20200;-74
2022/08/14 02:39:26;;;;;;;9.80;8.97;;;;;;;23.65;93.38;98630.88;5070758;28;20228;-74
2022/08/14 02:41:53;;;;;;;9.83;9.03;;;;;;;23.52;93.60;98626.00;5071293;28;20702;-74
2022/08/14 02:44:21;;;;;;;8.80;8.30;;;;;;;23.52;94.42;98629.41;5070557;28;20699;-74
2022/08/14 02:46:50;;;;;;;9.93;9.30;;;;;;;23.48;95.08;98622.00;5067772;28;20227;-74
2022/08/14 02:49:20;;;;;;;9.67;8.80;;;;;;;23.49;95.17;98618.41;5069942;28;20599;-74
2022/08/14 02:51:48;;;;;;;10.27;9.47;;;;;;;23.47;95.41;98620.34;5071017;28;20192;-74
2022/08/14 02:54:15;;;;;;;8.77;7.97;;;;;;;23.44;95.06;98612.78;5071284;28;20553;-74
2022/08/14 02:56:42;;;;;;;9.03;8.43;;;;;;;23.45;95.13;98622.31;5070915;28;20617;-75
2022/08/14 02:59:12;;;;;;;13.93;9.37;;;;;;;23.44;95.39;98616.25;5071049;28;20192;-75
2022/08/14 03:01:40;;;;;;;10.30;9.23;;;;;;;23.50;95.50;98620.06;5070294;28;20196;-75
2022/08/14 03:04:09;;;;;;;8.63;8.13;;;;;;;23.47;95.51;98622.97;5069851;28;20282;-74
2022/08/14 03:06:42;;;;;;;10.17;9.27;;;;;;;23.47;95.15;98615.13;5071222;28;20200;-75
2022/08/14 03:09:09;;;;;;;10.07;9.37;;;;;;;23.49;94.81;98618.41;5070483;28;20707;-74
2022/08/14 03:11:36;;;;;;;9.10;8.40;;;;;;;23.49;94.81;98613.16;5069857;28;20199;-74
2022/08/14 03:14:04;;;;;;;10.10;9.10;;;;;;;23.44;95.25;98620.66;5068424;28;20568;-75
2022/08/14 03:16:35;;;;;;;16.47;9.73;;;;;;;23.42;95.29;98618.19;5068983;28;20626;-75
2022/08/14 03:19:04;;;;;;;9.47;8.80;;;;;;;23.43;95.71;98619.00;5070670;28;20580;-74
2022/08/14 03:21:31;;;;;;;11.47;9.10;;;;;;;23.42;95.45;98606.91;5070622;28;20249;-75
2022/08/14 03:24:08;;;;;;;9.17;8.57;;;;;;;23.37;95.81;98603.84;5070797;28;20664;-75
2022/08/14 03:26:36;;;;;;;9.67;8.93;;;;;;;23.45;95.64;98611.84;5070743;28;20192;-75
2022/08/14 03:29:04;;;;;;;9.80;9.10;;;;;;;23.44;95.72;98610.19;5070386;28;20216;-75
2022/08/14 03:31:31;;;;;;;9.90;9.07;;;;;;;23.45;96.40;98609.22;5070672;28;20192;-75
2022/08/14 03:33:58;;;;;;;9.30;8.77;;;;;;;23.47;95.93;98615.13;5069700;28;20196;-75
2022/08/14 03:36:26;;;;;;;10.73;9.87;;;;;;;23.44;96.04;98621.47;5070441;28;20196;-75
2022/08/14 03:38:54;;;;;;;10.50;9.57;;;;;;;23.39;96.99;98615.00;5070575;28;20192;-75
2022/08/14 03:41:26;;;;;;;10.20;9.33;;;;;;;23.36;97.12;98610.06;5069313;28;20632;-75
2022/08/14 03:43:55;;;;;;;10.03;9.23;;;;;;;23.34;97.39;98612.81;5069268;28;20202;-75
2022/08/14 03:46:22;;;;;;;10.57;9.57;;;;;;;23.31;97.40;98614.91;5070130;28;20252;-75
2022/08/14 03:48:49;;;;;;;12.03;9.77;;;;;;;23.23;98.09;98604.34;5070611;28;20759;-75
2022/08/14 03:51:16;;;;;;;10.20;9.40;;;;;;;23.12;98.97;98617.59;5070259;28;20280;-73
2022/08/14 03:53:45;;;;;;;10.53;9.63;;;;;;;23.17;99.45;98623.22;5070236;28;20290;-75
2022/08/14 03:56:14;;;;;;;12.23;11.03;;;;;;;23.20;99.33;98625.56;5070390;28;20204;-75
2022/08/14 03:58:44;;;;;;;10.37;9.57;;;;;;;23.22;99.42;98631.47;5068437;28;20200;-75
2022/08/14 04:01:11;;;;;;;9.63;8.93;;;;;;;23.23;99.60;98631.31;5070394;28;20676;-75
2022/08/14 04:03:38;;;;;;;9.60;8.83;;;;;;;23.24;99.89;98637.38;5066535;28;20296;-75
2022/08/14 04:06:07;;;;;;;10.60;9.50;;;;;;;23.25;99.82;98631.19;5070380;28;20576;-75
2022/08/14 04:08:40;;;;;;;11.67;10.70;;;;;;;23.23;100.00;98633.13;5070058;28;20222;-75
2022/08/14 04:11:07;;;;;;;10.47;9.57;;;;;;;23.28;100.00;98636.13;5070401;28;20203;-75
2022/08/14 04:13:42;;;;;;;10.93;10.00;;;;;;;23.28;99.71;98639.56;5069383;28;20196;-75
2022/08/14 04:16:12;;;;;;;11.63;10.67;;;;;;;23.31;100.00;98638.44;5072002;28;20196;-75
2022/08/14 04:18:40;;;;;;;11.20;10.23;;;;;;;23.32;100.00;98637.47;5073497;28;20283;-75
2022/08/14 04:21:08;;;;;;;13.10;9.93;;;;;;;23.30;100.00;98642.00;5073592;28;20245;-75
2022/08/14 04:23:34;;;;;;;10.17;9.10;;;;;;;23.29;100.00;98635.16;5073815;28;20579;-75
2022/08/14 04:26:03;;;;;;;10.40;9.53;;;;;;;23.31;100.00;98641.88;5073670;28;20571;-75
2022/08/14 04:28:30;;;;;;;9.67;9.03;;;;;;;23.33;100.00;98639.09;5073050;28;20596;-74
2022/08/14 04:30:57;;;;;;;10.07;9.10;;;;;;;23.30;100.00;98624.53;5072768;28;20219;-75
2022/08/14 04:33:27;;;;;;;9.00;8.30;;;;;;;23.39;100.00;98638.56;5070994;28;20211;-75
2022/08/14 04:35:54;;;;;;;8.60;7.87;;;;;;;23.41;100.00;98634.03;5069182;28;20211;-75
2022/08/14 04:43:50;;;;;;;8.17;7.53;;;;;;;23.33;97.15;98623.41;5071377;28;20219;-74
2022/08/14 04:46:19;;;;;;;7.77;7.27;;;;;;;23.47;96.91;98634.25;5073286;28;20278;-75
2022/08/14 04:48:47;;;;;;;8.27;7.67;;;;;;;23.45;96.39;98617.06;5073605;28;20200;-74
2022/08/14 04:51:16;;;;;;;7.77;6.87;;;;;;;23.61;95.55;98643.41;5073820;28;20200;-75
2022/08/14 04:53:45;;;;;;;8.40;7.53;;;;;;;23.61;96.20;98638.19;5071992;28;20205;-74
2022/08/14 04:56:13;;;;;;;8.23;7.73;;;;;;;23.58;96.34;98638.47;5058820;28;20228;-75
2022/08/14 04:58:41;;;;;;;8.33;7.73;;;;;;;23.50;97.10;98635.75;5059430;28;20201;-75
2022/08/14 05:01:13;;;;;;;9.70;8.80;;;;;;;23.46;97.96;98640.44;5071708;28;20631;-75
2022/08/14 05:03:41;;;;;;;9.10;8.33;;;;;;;23.35;99.13;98637.19;5073115;28;20250;-75
2022/08/14 05:06:12;;;;;;;10.50;9.70;;;;;;;23.28;100.00;98643.97;5072850;28;20737;-74
2022/08/14 05:08:42;;;;;;;11.50;10.10;;;;;;;23.26;100.00;98645.91;5073032;28;20224;-75
2022/08/14 05:11:09;;;;;;;10.70;10.00;;;;;;;23.24;100.00;98630.34;5072654;28;20212;-74
2022/08/14 05:13:36;;;;;;;10.43;9.63;;;;;;;23.32;100.00;98632.25;5072827;28;20188;-74
2022/08/14 05:16:06;;;;;;;10.27;9.47;;;;;;;23.25;100.00;98631.19;5072221;28;20195;-74
2022/08/14 05:18:35;;;;;;;10.50;9.53;;;;;;;23.17;100.00;98628.44;5072052;28;20290;-75
2022/08/14 05:21:04;;;;;;;10.33;9.53;;;;;;;23.17;100.00;98624.03;5071025;28;20202;-72
2022/08/14 05:23:34;;;;;;;10.07;9.27;;;;;;;23.25;100.00;98634.63;5066022;28;20200;-73
2022/08/14 05:26:02;;;;;;;11.30;10.37;;;;;;;23.27;100.00;98626.59;5067097;28;20208;-73
2022/08/14 05:28:34;;;;;;;10.37;9.57;;;;;;;23.45;100.00;98636.22;5071662;28;21040;-73
2022/08/14 05:31:03;;;;;;;14.80;11.50;;;;;;;23.60;100.00;98630.47;5070347;28;20611;-72
2022/08/14 05:33:33;;;;;;;9.60;8.93;;;;;;;23.66;100.00;98641.16;5070762;28;20575;-73
2022/08/14 05:36:02;;;;;;;11.50;10.40;;;;;;;23.81;100.00;98631.84;5071862;28;20227;-74
2022/08/14 05:38:32;;;;;;;10.97;9.83;;;;;;;23.87;99.38;98633.88;5070369;28;20652;-73
2022/08/14 05:41:01;;;;;;;9.47;8.83;;;;;;;23.79;98.16;98639.03;5070539;28;20695;-74
2022/08/14 05:43:29;;;;;;;10.53;9.50;;;;;;;23.83;98.90;98643.00;5069654;28;20240;-74
2022/08/14 05:45:57;;;;;;;9.10;8.23;;;;;;;23.87;98.00;98636.50;5070277;28;20211;-75
2022/08/14 05:48:24;;;;;;;9.33;8.13;;;;;;;23.88;97.11;98629.44;5070236;28;20207;-74
2022/08/14 05:50:53;;;;;;;10.90;9.63;;;;;;;23.88;97.97;98635.50;5070412;28;20281;-75
2022/08/14 05:53:20;;;;;;;9.73;8.93;;;;;;;23.94;98.46;98634.91;5070943;28;20200;-74
2022/08/14 05:55:47;;;;;;;9.43;8.57;;;;;;;23.95;97.25;98633.13;5070309;28;20196;-75
2022/08/14 05:58:15;;;;;;;9.60;8.67;;;;;;;23.88;100.00;98635.50;5071223;28;20207;-75
2022/08/14 06:00:45;;;;;;;9.23;8.53;;;;;;;23.74;100.00;98628.19;5069531;28;20294;-75
2022/08/14 06:03:15;;;;;;;10.60;9.70;;;;;;;23.74;100.00;98641.28;5068738;28;20203;-75
2022/08/14 06:05:42;;;;;;;9.13;8.43;;;;;;;23.58;100.00;98628.00;5067602;28;20204;-76
2022/08/14 06:08:15;;;;;;;9.97;9.23;;;;;;;23.65;100.00;98644.75;5069788;28;20250;-76
2022/08/14 06:10:42;;;;;;;11.23;10.30;;;;;;;23.63;100.00;98646.69;5068481;28;20220;-75
2022/08/14 06:13:09;;;;;;;10.90;9.43;;;;;;;23.72;100.00;98640.56;5069420;28;20211;-75
2022/08/14 06:15:37;;;;;;;9.90;8.97;;;;;;;23.80;100.00;98640.69;5070290;28;20196;-74
2022/08/14 06:18:05;;;;;;;10.77;9.67;;;;;;;23.97;100.00;98645.09;5069443;28;20200;-75
2022/08/14 06:20:32;;;;;;;10.17;9.17;;;;;;;24.15;100.00;98652.16;5070433;28;20762;-74
2022/08/14 06:22:59;;;;;;;11.80;10.70;;;;;;;24.38;100.00;98645.50;5070356;28;20199;-75
2022/08/14 06:25:27;;;;;;;11.70;10.40;;;;;;;24.41;100.00;98655.66;5070143;28;20196;-75
2022/08/14 06:27:53;;;;;;;11.27;9.63;;;;;;;24.43;100.00;98654.53;5068670;28;20261;-75
2022/08/14 06:30:23;;;;;;;10.70;9.80;;;;;;;24.30;100.00;98640.19;5069341;28;20219;-74
2022/08/14 06:32:51;;;;;;;11.07;10.07;;;;;;;24.46;100.00;98663.88;5070032;28;20674;-75
2022/08/14 06:35:19;;;;;;;9.40;8.90;;;;;;;24.45;100.00;98660.47;5070332;28;20204;-74
2022/08/14 06:37:50;;;;;;;9.83;9.13;;;;;;;24.49;100.00;98655.75;5067803;28;20277;-74
2022/08/14 06:40:20;;;;;;;10.57;9.77;;;;;;;24.48;100.00;98661.97;5069358;28;20290;-74
2022/08/14 06:42:47;;;;;;;11.83;10.87;;;;;;;24.30;100.00;98661.13;5068194;28;20235;-74
2022/08/14 06:45:14;;;;;;;10.67;9.77;;;;;;;24.22;100.00;98663.69;5070419;28;20223;-74
2022/08/14 06:47:43;;;;;;;11.47;10.43;;;;;;;24.24;100.00;98666.97;5067607;28;20203;-75
2022/08/14 06:50:14;;;;;;;11.03;9.97;;;;;;;24.23;100.00;98665.34;5069291;28;20220;-75
2022/08/14 06:52:41;;;;;;;10.87;9.90;;;;;;;24.20;100.00;98652.56;5070304;28;20257;-74
2022/08/14 06:55:10;;;;;;;10.30;9.30;;;;;;;24.15;100.00;98646.94;5070161;28;20204;-75
2022/08/14 06:57:38;;;;;;;12.67;11.50;;;;;;;24.13;100.00;98646.28;5069059;28;20586;-75
2022/08/14 07:00:07;;;;;;;11.30;10.40;;;;;;;24.16;100.00;98645.97;5069805;28;20196;-74
2022/08/14 07:08:04;;;;;;;9.60;8.80;;;;;;;24.20;100.00;98655.19;5069997;28;20238;-72
2022/08/14 07:10:31;;;;;;;18.37;10.40;;;;;;;24.27;100.00;98645.72;5070002;28;20212;-72
2022/08/14 07:12:58;;;;;;;10.70;9.73;;;;;;;24.37;100.00;98651.69;5069066;28;20218;-72
2022/08/14 07:15:25;;;;;;;9.63;8.93;;;;;;;24.31;97.43;98642.66;5069020;28;20196;-72
2022/08/14 07:17:52;;;;;;;8.97;8.40;;;;;;;24.52;96.93;98655.44;5068366;28;20211;-72
2022/08/14 07:20:21;;;;;;;9.77;9.07;;;;;;;24.57;96.57;98658.41;5069020;28;20192;-71
2022/08/14 07:22:48;;;;;;;9.27;8.73;;;;;;;24.61;95.74;98659.78;5069185;28;20204;-73
2022/08/14 07:25:15;;;;;;;9.57;8.67;;;;;;;24.61;95.61;98667.63;5070036;28;20227;-72
2022/08/14 07:27:42;;;;;;;11.60;10.33;;;;;;;24.54;95.71;98664.78;5070809;28;20203;-73
2022/08/14 07:30:11;;;;;;;9.20;8.47;;;;;;;24.40;95.12;98662.72;5068854;28;20223;-72
2022/08/14 07:32:38;;;;;;;8.80;8.10;;;;;;;24.28;96.01;98663.09;5070514;28;20203;-73
2022/08/14 07:35:06;;;;;;;8.97;8.17;;;;;;;24.10;96.51;98651.78;5069340;28;20648;-75
2022/08/14 07:37:34;;;;;;;8.13;7.53;;;;;;;24.10;95.50;98654.38;5069655;28;20656;-73
2022/08/14 07:40:01;;;;;;;8.83;8.23;;;;;;;24.17;96.01;98671.19;5070520;28;20196;-73
2022/08/14 07:42:31;;;;;;;8.43;7.93;;;;;;;24.04;96.15;98676.75;5070071;28;20291;-73
2022/08/14 07:44:58;;;;;;;8.60;8.00;;;;;;;24.03;96.75;98670.69;5069680;28;20200;-73
2022/08/14 07:47:25;;;;;;;8.97;8.27;;;;;;;23.96;96.00;98676.66;5070394;28;20196;-73
2022/08/14 07:49:58;;;;;;;8.30;7.70;;;;;;;23.92;96.91;98670.06;5070468;28;20196;-73
2022/08/14 07:52:26;;;;;;;8.50;7.80;;;;;;;23.85;98.20;98677.69;5074006;28;20195;-72
2022/08/14 07:54:55;;;;;;;9.53;8.87;;;;;;;23.60;100.00;98675.78;5074653;28;20260;-72
2022/08/14 07:57:22;;;;;;;9.30;8.20;;;;;;;23.53;100.00;98680.78;5074094;28;20202;-71
2022/08/14 07:59:49;;;;;;;10.77;8.80;;;;;;;23.37;100.00;98688.38;5074247;28;20200;-72
2022/08/14 08:02:17;;;;;;;9.80;9.13;;;;;;;23.11;100.00;98687.38;5070306;28;20204;-71
2022/08/14 08:04:45;;;;;;;9.90;9.13;;;;;;;23.03;100.00;98689.88;5072118;28;20310;-72
2022/08/14 08:07:13;;;;;;;10.53;9.10;;;;;;;22.90;100.00;98694.59;5070809;28;20657;-71
2022/08/14 08:09:49;;;;;;;10.77;9.70;;;;;;;22.81;100.00;98685.78;5072355;28;20199;-70
2022/08/14 08:12:20;;;;;;;9.77;8.87;;;;;;;22.87;100.00;98682.63;5073112;28;20611;-70
2022/08/14 08:14:50;;;;;;;10.47;9.37;;;;;;;22.86;100.00;98673.13;5073403;28;20656;-71
2022/08/14 08:17:19;;;;;;;11.63;9.40;;;;;;;22.87;100.00;98661.72;5074171;28;20192;-71
2022/08/14 08:19:46;;;;;;;12.07;9.10;;;;;;;22.78;100.00;98665.16;5073850;28;20199;-71
2022/08/14 08:22:13;;;;;;;10.20;9.17;;;;;;;22.76;100.00;98667.09;5074039;28;20204;-69
2022/08/14 08:24:40;;;;;;;10.27;9.23;;;;;;;22.82;100.00;98677.00;5074238;28;20564;-69
2022/08/14 08:27:15;;;;;;;12.63;9.87;;;;;;;22.63;100.00;98692.66;5074079;28;20200;-68
2022/08/14 08:29:43;;;;;;;11.10;10.00;;;;;;;22.38;100.00;98682.78;5069687;28;20595;-68
2022/08/14 08:32:10;;;;;;;10.30;9.40;;;;;;;22.31;100.00;98671.25;5074051;28;20238;-68
2022/08/14 08:34:47;;;;;;;10.97;10.00;;;;;;;22.35;100.00;98675.22;5073490;28;20203;-67
2022/08/14 08:37:15;;;;;;;11.47;9.03;;;;;;;22.44;100.00;98672.63;5066230;28;20682;-68
2022/08/14 08:39:45;;;;;;;8.63;7.93;;;;;;;22.37;100.00;98670.69;5072785;28;21251;-68
2022/08/14 08:42:12;;;;;;;11.17;8.00;;;;;;;22.38;100.00;98659.28;5072073;28;20653;-69
2022/08/14 08:44:39;;;;;;;10.13;8.60;;;;;;;22.38;100.00;98661.91;5073149;28;20200;-69
2022/08/14 08:47:07;;;;;;;11.43;8.67;;;;;;;22.45;100.00;98663.00;5072769;28;20211;-69
2022/08/14 08:49:41;;;;;;;9.13;8.23;;;;;;;22.56;100.00;98668.06;5068834;28;20204;-70
2022/08/14 08:52:08;;;;;;;7.93;7.23;;;;;;;22.62;100.00;98658.84;5069834;28;20258;-70
2022/08/14 08:54:36;;;;;;;8.93;8.20;;;;;;;22.71;100.00;98666.72;5066362;28;20208;-70
2022/08/14 08:57:11;;;;;;;9.93;8.80;;;;;;;22.69;100.00;98652.94;5070921;28;20247;-69
2022/08/14 08:59:38;;;;;;;10.13;8.03;;;;;;;22.77;100.00;98658.31;5070965;28;20200;-71
2022/08/14 09:02:08;;;;;;;10.73;9.83;;;;;;;22.86;100.00;98669.69;5068011;28;20207;-71
2022/08/14 09:04:38;;;;;;;13.70;12.40;;;;;;;22.93;100.00;98674.22;5071684;28;20227;-71
2022/08/14 09:07:05;;;;;;;21.40;19.17;;;;;;;22.90;100.00;98658.81;5071603;28;20207;-70
2022/08/14 09:09:33;;;;;;;15.47;13.87;;;;;;;22.96;100.00;98663.50;5072952;28;20200;-71
2022/08/14 09:12:02;;;;;;;15.07;13.87;;;;;;;22.97;100.00;98654.66;5070926;28;20236;-74
2022/08/14 09:14:30;;;;;;;19.67;17.97;;;;;;;23.02;100.00;98662.91;5069941;28;20250;-73
2022/08/14 09:16:58;;;;;;;15.70;14.20;;;;;;;23.11;100.00;98657.78;5070041;28;20204;-70
2022/08/14 09:19:27;;;;;;;15.53;14.03;;;;;;;23.07;100.00;98657.25;5070082;28;20199;-70
2022/08/14 09:21:54;;;;;;;22.77;14.70;;;;;;;23.03;100.00;98655.91;5071415;28;20204;-66
2022/08/14 09:24:22;;;;;;;16.43;15.10;;;;;;;23.07;100.00;98659.84;5070213;28;20752;-71
2022/08/14 09:26:49;;;;;;;44.30;33.07;;;;;;;23.07;100.00;98659.84;5068926;28;20208;-73
2022/08/14 09:29:16;;;;;;;11.67;10.67;;;;;;;23.00;100.00;98659.59;5071384;28;20208;-71
2022/08/14 09:31:46;;;;;;;14.73;13.57;;;;;;;22.99;100.00;98660.59;5070751;28;20212;-73
2022/08/14 09:34:22;;;;;;;11.93;10.83;;;;;;;22.87;100.00;98659.13;5070498;28;20218;-73
2022/08/14 09:37:21;;;;;;;10.30;9.60;;;;;;;22.82;100.00;98668.31;5070690;28;20200;-73
2022/08/14 09:40:04;;;;;;;10.20;9.27;;;;;;;22.72;100.00;98681.41;5062722;28;20200;-74
2022/08/14 09:42:49;;;;;;;10.00;9.17;;;;;;;22.58;100.00;98668.75;5064193;28;20588;-73
2022/08/14 09:45:17;;;;;;;12.80;11.60;;;;;;;22.60;100.00;98673.84;5065221;28;20281;-75
2022/08/14 09:47:48;;;;;;;19.53;14.40;;;;;;;22.56;100.00;98660.22;5072587;28;20295;-72
2022/08/14 09:50:20;;;;;;;18.20;14.77;;;;;;;22.37;100.00;98641.94;5072749;28;20211;-70
2022/08/14 09:52:54;;;;;;;15.80;13.57;;;;;;;22.29;100.00;98652.28;5072392;28;20203;-71
2022/08/14 09:55:24;;;;;;;15.83;11.70;;;;;;;22.13;100.00;98652.00;5072658;28;20202;-71
2022/08/14 09:57:53;;;;;;;12.07;11.03;;;;;;;22.09;100.00;98651.44;5072447;28;20277;-72
2022/08/14 10:00:36;;;;;;;11.13;10.23;;;;;;;22.17;100.00;98637.69;5072168;28;20200;-68
2022/08/14 10:03:03;;;;;;;10.87;9.77;;;;;;;22.18;100.00;98637.56;5071446;28;20291;-70
2022/08/14 10:05:32;;;;;;;11.90;10.70;;;;;;;22.13;100.00;98626.72;5071304;28;20900;-70
2022/08/14 10:08:01;;;;;;;18.50;14.50;;;;;;;22.27;100.00;98649.78;5071070;28;20257;-70
2022/08/14 10:10:32;;;;;;;14.50;11.60;;;;;;;22.33;100.00;98643.19;5071973;28;20196;-70
2022/08/14 10:13:01;;;;;;;12.27;11.03;;;;;;;22.36;100.00;98637.69;5071364;28;20192;-70
2022/08/14 10:15:30;;;;;;;10.73;9.63;;;;;;;22.33;100.00;98617.91;5070279;28;20544;-70
2022/08/14 10:18:06;;;;;;;12.00;10.87;;;;;;;22.45;100.00;98642.09;5071181;28;20212;-71
2022/08/14 10:20:39;;;;;;;14.07;11.57;;;;;;;22.51;100.00;98625.88;5072464;28;20206;-71
2022/08/14 10:23:15;;;;;;;16.83;12.03;;;;;;;22.59;100.00;98618.13;5067636;28;20746;-70
2022/08/14 10:25:46;;;;;;;14.80;11.00;;;;;;;22.68;100.00;98627.78;5073112;28;20601;-71
2022/08/14 10:28:16;;;;;;;13.37;12.07;;;;;;;22.81;100.00;98622.28;5072877;28;20225;-70
2022/08/14 10:30:46;;;;;;;13.10;11.30;;;;;;;22.91;100.00;98618.63;5072635;28;20199;-70
2022/08/14 10:33:24;;;;;;;13.73;11.07;;;;;;;23.04;100.00;98607.84;5068503;28;20664;-70
2022/08/14 10:35:51;;;;;;;15.50;13.13;;;;;;;23.09;100.00;98610.88;5072729;28;20200;-70
2022/08/14 10:38:27;;;;;;;12.13;11.03;;;;;;;22.93;100.00;98610.66;5072427;28;20684;-70
2022/08/14 10:40:56;;;;;;;12.17;10.93;;;;;;;22.84;100.00;98601.88;5070581;28;20200;-69
2022/08/14 10:43:25;;;;;;;11.67;10.50;;;;;;;22.73;100.00;98586.38;5071934;28;20210;-69
2022/08/14 10:45:57;;;;;;;14.43;12.00;;;;;;;22.54;100.00;98570.72;5070747;28;20192;-69
2022/08/14 10:48:25;;;;;;;12.77;11.57;;;;;;;22.43;100.00;98553.44;5069699;28;20618;-70
2022/08/14 10:50:54;;;;;;;11.50;10.40;;;;;;;22.48;100.00;98568.69;5068334;28;20579;-69
2022/08/14 10:53:35;;;;;;;12.47;11.23;;;;;;;22.50;100.00;98577.19;5067451;28;20261;-69
2022/08/14 10:56:08;;;;;;;11.93;10.73;;;;;;;;;;5069162;28;20214;-68
2022/08/14 10:58:35;;;;;;;11.70;10.70;;;;;;;22.28;100.00;98573.13;5068579;28;20204;-69
2022/08/14 11:01:04;;;;;;;10.93;10.00;;;;;;;22.34;100.00;98585.63;5066601;28;20204;-70
2022/08/14 11:03:38;;;;;;;11.77;10.37;;;;;;;22.35;100.00;98589.06;5067593;28;20205;-70
2022/08/14 11:06:18;;;;;;;14.13;10.67;;;;;;;22.43;100.00;98594.38;5068234;28;20258;-70
2022/08/14 11:08:46;;;;;;;13.33;11.97;;;;;;;22.41;100.00;98580.66;5065647;28;20277;-70
2022/08/14 11:11:14;;;;;;;12.93;11.73;;;;;;;22.54;100.00;98589.00;5065185;28;20219;-70
2022/08/14 11:13:45;;;;;;;13.37;12.07;;;;;;;22.53;100.00;98587.34;5067209;28;20648;-69
2022/08/14 11:16:12;;;;;;;12.97;11.77;;;;;;;22.49;100.00;98581.59;5068970;28;20234;-70
2022/08/14 11:18:43;;;;;;;15.27;11.53;;;;;;;22.54;100.00;98594.25;5069896;28;20188;-70
2022/08/14 11:21:15;;;;;;;14.33;12.63;;;;;;;22.45;100.00;98585.47;5071217;28;20222;-70
2022/08/14 11:23:44;;;;;;;17.50;12.73;;;;;;;22.54;100.00;98604.69;5069206;28;20200;-70
2022/08/14 11:26:13;;;;;;;19.87;14.33;;;;;;;22.52;100.00;98614.44;5070743;28;20200;-71
2022/08/14 11:28:43;;;;;;;15.10;13.50;;;;;;;22.46;100.00;98612.38;5071346;28;20199;-71
2022/08/14 11:31:13;;;;;;;17.27;14.17;;;;;;;22.42;100.00;98605.81;5071676;28;20591;-71
2022/08/14 11:33:40;;;;;;;17.13;14.17;;;;;;;22.49;100.00;98609.50;5071698;28;20200;-71
2022/08/14 11:36:09;;;;;;;15.53;13.97;;;;;;;22.47;100.00;98614.03;5071809;28;20667;-71
2022/08/14 11:38:37;;;;;;;16.33;14.17;;;;;;;22.48;100.00;98606.09;5071686;28;20196;-70
2022/08/14 11:41:05;;;;;;;17.50;14.43;;;;;;;22.53;100.00;98608.25;5071696;28;20204;-71
2022/08/14 11:43:48;;;;;;;14.73;13.27;;;;;;;22.61;100.00;98616.22;5071538;28;20207;-71
2022/08/14 11:46:15;;;;;;;17.87;15.00;;;;;;;22.61;100.00;98611.00;5071411;28;20685;-71